createdAt,value
2023-04-23T00:01:39.321Z,100948.34
2023-04-23T00:04:08.616Z,100948.84
2023-04-23T00:06:35.841Z,100938.88
2023-04-23T00:09:03.955Z,100933.09
2023-04-23T00:11:30.622Z,100936.25
2023-04-23T00:13:57.344Z,100935.22
2023-04-23T00:16:24.695Z,100928.88
2023-04-23T00:18:51.272Z,100933.63
2023-04-23T00:21:17.820Z,100935.72
2023-04-23T00:23:44.220Z,100926.78
2023-04-23T00:26:10.661Z,100921.25
2023-04-23T00:28:37.179Z,100930.97
2023-04-23T00:31:03.653Z,100916.78
2023-04-23T00:33:30.059Z,100922.03
2023-04-23T00:35:56.473Z,100913.63
2023-04-23T00:38:22.968Z,100910.44
2023-04-23T00:40:49.428Z,100918.31
2023-04-23T00:43:15.979Z,100919.38
2023-04-23T00:45:43.009Z,100906.53
2023-04-23T00:48:09.589Z,100912.03
2023-04-23T00:50:36.069Z,100902.03
2023-04-23T00:53:02.647Z,100903.59
2023-04-23T00:55:29.345Z,100897.28
2023-04-23T00:57:55.917Z,100901.25
2023-04-23T01:00:22.424Z,100899.91
2023-04-23T01:02:49.982Z,100894.13
2023-04-23T01:05:18.045Z,100899.66
2023-04-23T01:07:45.348Z,100897.28
2023-04-23T01:10:12.172Z,100891.75
2023-04-23T01:12:38.941Z,100899.88
2023-04-23T01:15:06.165Z,100882.84
2023-04-23T01:17:34.268Z,100881.53
2023-04-23T01:20:00.726Z,100874.72
2023-04-23T01:22:27.113Z,100883.63
2023-04-23T01:24:53.787Z,100873.66
2023-04-23T01:27:20.309Z,100872.88
2023-04-23T01:29:47.503Z,100865.78
2023-04-23T01:32:14.012Z,100871.28
2023-04-23T01:34:41.383Z,100858.72
2023-04-23T01:37:08.309Z,100854.75
2023-04-23T01:39:36.023Z,100860.00
2023-04-23T01:42:02.786Z,100847.16
2023-04-23T01:44:29.334Z,100860.28
2023-04-23T01:46:57.429Z,100851.38
2023-04-23T01:49:24.086Z,100843.50
2023-04-23T01:51:50.496Z,100841.66
2023-04-23T01:54:16.922Z,100845.34
2023-04-23T01:56:43.404Z,100834.28
2023-04-23T01:59:09.772Z,100843.00
2023-04-23T02:01:44.488Z,100838.50
2023-04-23T02:04:12.840Z,100840.63
2023-04-23T02:06:40.426Z,100841.41
2023-04-23T02:09:07.303Z,100835.38
2023-04-23T02:11:33.809Z,100831.97
2023-04-23T02:14:01.310Z,100834.84
2023-04-23T02:16:28.588Z,100835.13
2023-04-23T02:18:55.660Z,100824.09
2023-04-23T02:21:24.534Z,100829.84
2023-04-23T02:23:51.050Z,100819.59
2023-04-23T02:26:18.757Z,100819.34
2023-04-23T02:28:45.974Z,100815.41
2023-04-23T02:31:12.461Z,100815.38
2023-04-23T02:33:38.850Z,100826.69
2023-04-23T02:36:05.494Z,100821.72
2023-04-23T02:38:31.906Z,100820.38
2023-04-23T02:40:58.324Z,100816.47
2023-04-23T02:43:24.863Z,100817.50
2023-04-23T02:45:51.313Z,100809.09
2023-04-23T02:48:18.276Z,100807.00
2023-04-23T02:50:44.683Z,100801.47
2023-04-23T02:53:11.125Z,100802.53
2023-04-23T02:55:37.526Z,100806.22
2023-04-23T02:58:04.023Z,100799.63
2023-04-23T03:00:31.476Z,100796.50
2023-04-23T03:02:58.036Z,100802.25
2023-04-23T03:05:24.477Z,100808.06
2023-04-23T03:07:50.914Z,100799.63
2023-04-23T03:10:17.305Z,100801.22
2023-04-23T03:12:43.675Z,100797.00
2023-04-23T03:15:11.494Z,100800.44
2023-04-23T03:17:38.412Z,100799.13
2023-04-23T03:20:05.672Z,100801.22
2023-04-23T03:22:32.090Z,100800.97
2023-04-23T03:24:58.509Z,100795.97
2023-04-23T03:27:24.937Z,100802.81
2023-04-23T03:29:51.339Z,100799.63
2023-04-23T03:32:17.741Z,100794.13
2023-04-23T03:34:44.195Z,100801.22
2023-04-23T03:37:10.772Z,100797.00
2023-04-23T03:39:37.257Z,100795.19
2023-04-23T03:42:05.231Z,100793.34
2023-04-23T03:44:31.593Z,100794.94
2023-04-23T03:46:58.019Z,100790.44
2023-04-23T03:49:26.317Z,100793.84
2023-04-23T03:51:52.738Z,100793.06
2023-04-23T03:54:19.555Z,100792.56
2023-04-23T03:56:46.047Z,100794.38
2023-04-23T03:59:12.479Z,100786.22
2023-04-23T04:01:38.898Z,100779.94
2023-04-23T04:04:05.724Z,100784.69
2023-04-23T04:06:32.829Z,100777.56
2023-04-23T04:08:59.264Z,100782.03
2023-04-23T04:11:26.484Z,100777.31
2023-04-23T04:13:52.942Z,100774.94
2023-04-23T04:16:19.559Z,100770.19
2023-04-23T04:18:45.996Z,100769.16
2023-04-23T04:21:12.427Z,100775.47
2023-04-23T04:23:39.750Z,100766.00
2023-04-23T04:26:07.836Z,100775.47
2023-04-23T04:28:36.290Z,100774.69
2023-04-23T04:31:03.487Z,100779.69
2023-04-23T04:33:30.658Z,100779.94
2023-04-23T04:35:57.334Z,100777.06
2023-04-23T04:38:23.816Z,100784.69
2023-04-23T04:40:50.555Z,100774.94
2023-04-23T04:43:17.178Z,100778.34
2023-04-23T04:45:44.707Z,100781.25
2023-04-23T04:48:11.061Z,100785.47
2023-04-23T04:50:37.443Z,100779.16
2023-04-23T04:53:03.885Z,100785.44
2023-04-23T04:55:30.993Z,100777.03
2023-04-23T04:57:57.803Z,100775.72
2023-04-23T05:00:29.565Z,100774.41
2023-04-23T05:02:57.372Z,100785.69
2023-04-23T05:05:25.236Z,100789.66
2023-04-23T05:07:52.038Z,100783.59
2023-04-23T05:10:18.560Z,100779.38
2023-04-23T05:12:44.972Z,100781.75
2023-04-23T05:15:15.419Z,100779.38
2023-04-23T05:17:41.944Z,100785.69
2023-04-23T05:20:12.523Z,100784.13
2023-04-23T05:22:42.076Z,100780.16
2023-04-23T05:25:10.261Z,100785.94
2023-04-23T05:27:36.666Z,100783.28
2023-04-23T05:30:04.559Z,100787.75
2023-04-23T05:32:31.122Z,100781.69
2023-04-23T05:34:57.798Z,100781.94
2023-04-23T05:37:24.196Z,100784.31
2023-04-23T05:39:50.552Z,100784.31
2023-04-23T05:42:17.048Z,100774.31
2023-04-23T05:44:43.586Z,100777.97
2023-04-23T05:47:11.005Z,100760.88
2023-04-23T05:49:37.382Z,100779.28
2023-04-23T05:52:03.854Z,100780.84
2023-04-23T05:54:30.366Z,100776.66
2023-04-23T05:56:56.845Z,100782.69
2023-04-23T05:59:23.219Z,100781.63
2023-04-23T06:01:49.664Z,100779.00
2023-04-23T06:04:16.824Z,100790.31
2023-04-23T06:06:43.655Z,100788.19
2023-04-23T06:09:10.068Z,100782.13
2023-04-23T06:11:36.557Z,100776.59
2023-04-23T06:14:03.319Z,100781.34
2023-04-23T06:16:30.339Z,100773.69
2023-04-23T06:18:57.000Z,100769.69
2023-04-23T06:21:23.606Z,100767.88
2023-04-23T06:23:50.631Z,100751.03
2023-04-23T06:26:17.370Z,100754.13
2023-04-23T06:28:45.656Z,100747.25
2023-04-23T06:31:12.709Z,100751.72
2023-04-23T06:33:39.260Z,100761.38
2023-04-23T06:36:06.804Z,100756.06
2023-04-23T06:38:33.178Z,100753.13
2023-04-23T06:40:59.695Z,100757.81
2023-04-23T06:43:26.262Z,100752.53
2023-04-23T06:45:52.649Z,100750.13
2023-04-23T06:48:19.175Z,100744.28
2023-04-23T06:50:45.645Z,100741.31
2023-04-23T06:53:12.046Z,100745.44
2023-04-23T06:55:38.473Z,100746.69
2023-04-23T06:58:07.121Z,100744.78
2023-04-23T07:00:33.766Z,100746.53
2023-04-23T07:03:01.017Z,100735.44
2023-04-23T07:05:27.595Z,100744.56
2023-04-23T07:07:53.988Z,100742.09
2023-04-23T07:10:20.640Z,100741.97
2023-04-23T07:12:47.123Z,100737.94
2023-04-23T07:15:13.597Z,100731.00
2023-04-23T07:17:40.076Z,100731.16
2023-04-23T07:20:08.253Z,100724.44
2023-04-23T07:22:34.933Z,100720.41
2023-04-23T07:25:01.613Z,100729.53
2023-04-23T07:27:28.052Z,100721.53
2023-04-23T07:29:54.514Z,100724.34
2023-04-23T07:32:23.442Z,100717.31
2023-04-23T07:34:49.906Z,100712.19
2023-04-23T07:37:16.756Z,100726.81
2023-04-23T07:39:44.265Z,100711.88
2023-04-23T07:42:10.877Z,100717.28
2023-04-23T07:44:37.270Z,100713.97
2023-04-23T07:47:03.777Z,100711.16
2023-04-23T07:49:31.075Z,100704.13
2023-04-23T07:51:57.440Z,100720.34
2023-04-23T07:54:25.653Z,100708.69
2023-04-23T07:56:52.236Z,100695.59
2023-04-23T07:59:18.593Z,100688.16
2023-04-23T08:01:45.028Z,100681.88
2023-04-23T08:04:12.073Z,100682.66
2023-04-23T08:06:38.737Z,100677.88
2023-04-23T08:09:06.348Z,100686.50
2023-04-23T08:11:33.652Z,100672.31
2023-04-23T08:14:01.482Z,100670.13
2023-04-23T08:16:28.476Z,100666.34
2023-04-23T08:19:04.907Z,100671.94
2023-04-23T08:21:33.292Z,100686.28
2023-04-23T08:23:59.918Z,100682.66
2023-04-23T08:26:26.323Z,100677.28
2023-04-23T08:28:52.720Z,100673.81
2023-04-23T08:31:26.610Z,100670.72
2023-04-23T08:33:53.890Z,100664.16
2023-04-23T08:36:20.477Z,100664.16
2023-04-23T08:38:46.855Z,100677.00
2023-04-23T08:41:14.874Z,100669.28
2023-04-23T08:43:47.905Z,100665.84
2023-04-23T08:46:16.054Z,100670.41
2023-04-23T08:48:44.389Z,100662.28
2023-04-23T08:51:14.122Z,100666.50
2023-04-23T08:53:44.255Z,100661.59
2023-04-23T08:56:11.630Z,100655.69
2023-04-23T08:58:38.104Z,100664.34
2023-04-23T09:01:04.678Z,100669.91
2023-04-23T09:03:31.349Z,100659.59
2023-04-23T09:05:57.789Z,100662.41
2023-04-23T09:08:24.202Z,100665.34
2023-04-23T09:10:52.065Z,100660.38
2023-04-23T09:13:18.483Z,100657.84
2023-04-23T09:15:45.439Z,100649.22
2023-04-23T09:18:11.972Z,100658.50
2023-04-23T09:20:38.431Z,100652.19
2023-04-23T09:23:08.556Z,100663.88
2023-04-23T09:25:35.028Z,100652.38
2023-04-23T09:28:01.604Z,100656.16
2023-04-23T09:30:27.973Z,100654.09
2023-04-23T09:32:54.986Z,100661.63
2023-04-23T09:35:21.945Z,100654.16
2023-04-23T09:37:50.330Z,100647.72
2023-04-23T09:40:22.113Z,100658.75
2023-04-23T09:42:49.887Z,100644.19
2023-04-23T09:45:16.623Z,100649.09
2023-04-23T09:47:55.286Z,100651.91
2023-04-23T09:50:38.927Z,100642.69
2023-04-23T09:53:09.655Z,100648.28
2023-04-23T09:55:39.806Z,100643.91
2023-04-23T09:58:11.045Z,100639.13
2023-04-23T10:00:38.453Z,100642.09
2023-04-23T10:03:06.935Z,100631.53
2023-04-23T10:08:13.916Z,100641.94
2023-04-23T10:10:55.131Z,100639.41
2023-04-23T10:13:26.777Z,100633.22
2023-04-23T10:15:53.404Z,100633.31
2023-04-23T10:18:20.585Z,100643.91
2023-04-23T10:20:47.470Z,100634.22
2023-04-23T10:23:14.178Z,100637.78
2023-04-23T10:25:40.746Z,100634.91
2023-04-23T10:28:09.201Z,100641.38
2023-04-23T10:30:36.377Z,100635.03
2023-04-23T10:33:03.022Z,100636.59
2023-04-23T10:35:29.860Z,100629.78
2023-04-23T10:37:56.371Z,100630.91
2023-04-23T10:40:30.074Z,100629.50
2023-04-23T10:42:56.821Z,100620.50
2023-04-23T10:45:25.292Z,100624.59
2023-04-23T10:47:54.748Z,100618.16
2023-04-23T10:50:25.737Z,100611.25
2023-04-23T10:52:56.885Z,100610.25
2023-04-23T10:55:28.581Z,100606.91
2023-04-23T10:58:01.264Z,100603.81
2023-04-23T11:00:30.394Z,100593.56
2023-04-23T11:02:57.378Z,100592.56
2023-04-23T11:05:25.780Z,100594.03
2023-04-23T11:10:51.804Z,100591.91
2023-04-23T11:13:23.873Z,100588.00
2023-04-23T11:16:12.427Z,100584.25
2023-04-23T11:19:04.691Z,100584.91
2023-04-23T11:21:57.432Z,100579.03
2023-04-23T11:24:24.818Z,100572.69
2023-04-23T11:26:57.090Z,100574.22
2023-04-23T11:29:25.084Z,100573.00
2023-04-23T11:32:01.817Z,100565.09
2023-04-23T11:34:29.649Z,100560.19
2023-04-23T11:36:58.600Z,100558.19
2023-04-23T11:39:25.633Z,100551.06
2023-04-23T11:41:52.494Z,100549.28
2023-04-23T11:44:21.104Z,100537.22
2023-04-23T11:46:49.249Z,100550.13
2023-04-23T11:49:16.842Z,100532.88
2023-04-23T11:51:44.400Z,100530.66
2023-04-23T11:54:11.273Z,100530.25
2023-04-23T11:56:38.256Z,100532.59
2023-04-23T11:59:05.371Z,100529.53
2023-04-23T12:01:45.436Z,100518.84
2023-04-23T12:04:17.032Z,100520.63
2023-04-23T12:06:45.619Z,100511.00
2023-04-23T12:09:13.099Z,100506.84
2023-04-23T12:11:41.362Z,100506.00
2023-04-23T12:14:11.113Z,100493.25
2023-04-23T12:16:45.779Z,100495.97
2023-04-23T12:19:17.156Z,100499.91
2023-04-23T12:21:56.716Z,100492.09
2023-04-23T12:24:28.245Z,100485.88
2023-04-23T12:27:00.585Z,100483.38
2023-04-23T12:29:29.629Z,100480.69
2023-04-23T12:31:59.243Z,100477.25
2023-04-23T12:34:25.752Z,100478.66
2023-04-23T12:36:54.585Z,100478.31
2023-04-23T12:39:21.970Z,100473.28
2023-04-23T12:41:56.407Z,100470.19
2023-04-23T12:44:22.830Z,100456.66
2023-04-23T12:47:00.316Z,100462.47
2023-04-23T12:49:27.380Z,100460.38
2023-04-23T12:51:57.882Z,100458.22
2023-04-23T12:54:25.697Z,100455.63
2023-04-23T12:56:52.444Z,100454.44
2023-04-23T12:59:18.922Z,100449.44
2023-04-23T13:01:45.376Z,100450.22
2023-04-23T13:04:11.786Z,100439.56
2023-04-23T13:06:38.192Z,100432.38
2023-04-23T13:09:05.341Z,100429.25
2023-04-23T13:11:32.685Z,100425.44
2023-04-23T13:13:59.206Z,100422.91
2023-04-23T13:16:25.769Z,100415.91
2023-04-23T13:18:52.347Z,100429.63
2023-04-23T13:21:19.146Z,100432.47
2023-04-23T13:23:45.785Z,100420.22
2023-04-23T13:26:15.478Z,100414.03
2023-04-23T13:28:42.103Z,100402.81
2023-04-23T13:31:08.897Z,100406.56
2023-04-23T13:33:35.699Z,100401.28
2023-04-23T13:36:02.422Z,100394.41
2023-04-23T13:38:29.207Z,100384.44
2023-04-23T13:40:55.777Z,100384.94
2023-04-23T13:43:22.164Z,100390.03
2023-04-23T13:45:48.930Z,100394.03
2023-04-23T13:48:15.766Z,100377.16
2023-04-23T13:50:42.855Z,100380.69
2023-04-23T13:53:10.730Z,100371.44
2023-04-23T13:55:37.769Z,100369.31
2023-04-23T13:58:05.418Z,100365.25
2023-04-23T14:00:31.833Z,100360.59
2023-04-23T14:02:58.342Z,100363.00
2023-04-23T14:05:24.867Z,100349.34
2023-04-23T14:07:51.238Z,100351.41
2023-04-23T14:10:17.896Z,100348.47
2023-04-23T14:12:45.762Z,100345.25
2023-04-23T14:15:12.472Z,100351.28
2023-04-23T14:17:40.456Z,100353.19
2023-04-23T14:20:07.792Z,100341.19
2023-04-23T14:22:34.233Z,100341.31
2023-04-23T14:25:08.675Z,100345.66
2023-04-23T14:27:41.898Z,100350.91
2023-04-23T14:30:15.794Z,100374.47
2023-04-23T14:32:43.261Z,100386.47
2023-04-23T14:35:09.769Z,100373.66
2023-04-23T14:37:36.435Z,100370.03
2023-04-23T14:40:02.882Z,100375.59
2023-04-23T14:42:29.297Z,100368.44
2023-04-23T14:44:59.906Z,100359.69
2023-04-23T14:47:26.864Z,100366.53
2023-04-23T14:49:53.880Z,100358.28
2023-04-23T14:52:20.533Z,100355.44
2023-04-23T14:54:46.999Z,100355.38
2023-04-23T14:57:13.404Z,100353.75
2023-04-23T14:59:39.983Z,100354.75
2023-04-23T15:02:07.115Z,100347.09
2023-04-23T15:04:35.262Z,100343.31
2023-04-23T15:07:01.821Z,100340.97
2023-04-23T15:09:28.309Z,100340.06
2023-04-23T15:11:54.706Z,100350.91
2023-04-23T15:14:31.709Z,100363.28
2023-04-23T15:16:58.181Z,100359.63
2023-04-23T15:19:24.636Z,100352.38
2023-04-23T15:21:50.995Z,100342.09
2023-04-23T15:24:17.398Z,100352.84
2023-04-23T15:26:45.588Z,100361.25
2023-04-23T15:29:13.335Z,100349.88
2023-04-23T15:31:39.818Z,100367.94
2023-04-23T15:34:08.662Z,100358.97
2023-04-23T15:36:37.197Z,100365.84
2023-04-23T15:39:03.742Z,100369.91
2023-04-23T15:41:30.398Z,100371.50
2023-04-23T15:43:56.830Z,100386.31
2023-04-23T15:46:23.236Z,100380.56
2023-04-23T15:48:49.627Z,100380.72
2023-04-23T15:51:16.324Z,100390.84
2023-04-23T15:53:42.751Z,100384.91
2023-04-23T15:56:09.118Z,100384.25
2023-04-23T15:58:35.510Z,100403.03
2023-04-23T16:01:02.950Z,100396.03
2023-04-23T16:03:29.571Z,100390.88
2023-04-23T16:05:56.108Z,100382.63
2023-04-23T16:08:22.475Z,100381.84
2023-04-23T16:10:48.822Z,100378.41
2023-04-23T16:13:15.471Z,100382.50
2023-04-23T16:15:41.837Z,100370.94
2023-04-23T16:18:08.330Z,100367.97
2023-04-23T16:20:35.938Z,100369.47
2023-04-23T16:23:02.425Z,100364.69
2023-04-23T16:25:29.000Z,100363.59
2023-04-23T16:27:56.291Z,100364.81
2023-04-23T16:30:23.339Z,100360.75
2023-04-23T16:32:49.824Z,100352.94
2023-04-23T16:35:16.260Z,100353.25
2023-04-23T16:37:42.696Z,100354.94
2023-04-23T16:40:10.271Z,100354.44
2023-04-23T16:42:36.776Z,100352.56
2023-04-23T16:45:04.273Z,100341.31
2023-04-23T16:47:30.708Z,100345.72
2023-04-23T16:49:57.162Z,100337.94
2023-04-23T16:52:23.625Z,100339.00
2023-04-23T16:54:51.273Z,100333.41
2023-04-23T16:57:18.218Z,100335.88
2023-04-23T16:59:44.701Z,100328.69
2023-04-23T17:02:11.765Z,100326.84
2023-04-23T17:04:38.459Z,100315.47
2023-04-23T17:07:05.439Z,100307.34
2023-04-23T17:09:31.870Z,100302.66
2023-04-23T17:11:59.261Z,100293.16
2023-04-23T17:14:26.073Z,100286.88
2023-04-23T17:16:52.460Z,100286.56
2023-04-23T17:19:19.159Z,100280.97
2023-04-23T17:21:45.616Z,100263.53
2023-04-23T17:24:12.509Z,100265.53
2023-04-23T17:26:39.665Z,100257.00
2023-04-23T17:29:06.425Z,100246.28
2023-04-23T17:31:33.355Z,100241.88
2023-04-23T17:34:00.313Z,100238.13
2023-04-23T17:36:27.359Z,100231.31
2023-04-23T17:38:53.727Z,100227.28
2023-04-23T17:41:20.930Z,100235.03
2023-04-23T17:43:49.089Z,100215.88
2023-04-23T17:46:15.763Z,100218.03
2023-04-23T17:48:42.241Z,100211.38
2023-04-23T17:51:08.644Z,100209.97
2023-04-23T17:53:35.079Z,100203.31
2023-04-23T17:56:03.268Z,100191.94
2023-04-23T17:58:30.724Z,100189.59
2023-04-23T18:00:57.272Z,100184.00
2023-04-23T18:03:23.972Z,100184.00
2023-04-23T18:05:50.772Z,100174.09
2023-04-23T18:08:19.370Z,100165.69
2023-04-23T18:10:46.378Z,100167.88
2023-04-23T18:13:13.652Z,100155.16
2023-04-23T18:15:41.991Z,100155.59
2023-04-23T18:18:08.934Z,100147.97
2023-04-23T18:20:38.186Z,100154.66
2023-04-23T18:23:05.357Z,100148.91
2023-04-23T18:25:32.260Z,100146.22
2023-04-23T18:27:58.681Z,100134.88
2023-04-23T18:30:25.745Z,100141.09
2023-04-23T18:33:00.767Z,100130.50
2023-04-23T18:35:27.271Z,100125.97
2023-04-23T18:37:59.306Z,100121.94
2023-04-23T18:40:26.002Z,100116.34
2023-04-23T18:42:52.659Z,100116.34
2023-04-23T18:45:19.062Z,100121.34
2023-04-23T18:48:23.352Z,100127.22
2023-04-23T18:50:52.610Z,100120.66
2023-04-23T18:53:20.962Z,100118.91
2023-04-23T18:55:48.446Z,100117.03
2023-04-23T18:58:14.907Z,100124.59
2023-04-23T19:00:41.363Z,100113.09
2023-04-23T19:03:23.557Z,100106.84
2023-04-23T19:05:53.012Z,100108.84
2023-04-23T19:08:19.381Z,100108.81
2023-04-23T19:10:45.780Z,100110.50
2023-04-23T19:13:12.338Z,100112.50
2023-04-23T19:15:38.807Z,100107.50
2023-04-23T19:18:06.074Z,100107.94
2023-04-23T19:20:32.595Z,100102.00
2023-04-23T19:22:58.987Z,100102.59
2023-04-23T19:25:25.361Z,100105.75
2023-04-23T19:27:51.844Z,100097.97
2023-04-23T19:30:18.268Z,100095.63
2023-04-23T19:32:44.712Z,100089.72
2023-04-23T19:35:11.681Z,100091.28
2023-04-23T19:37:38.037Z,100083.66
2023-04-23T19:40:04.925Z,100069.22
2023-04-23T19:42:32.215Z,100078.50
2023-04-23T19:44:58.702Z,100078.16
2023-04-23T19:47:25.237Z,100079.34
2023-04-23T19:49:51.654Z,100083.69
2023-04-23T19:52:22.654Z,100072.81
2023-04-23T19:54:49.808Z,100062.63
2023-04-23T19:57:19.611Z,100060.16
2023-04-23T19:59:46.175Z,100056.25
2023-04-23T20:02:12.800Z,100059.84
2023-04-23T20:04:39.442Z,100044.00
2023-04-23T20:07:06.870Z,100040.75
2023-04-23T20:09:33.784Z,100036.69
2023-04-23T20:12:01.378Z,100038.13
2023-04-23T20:14:27.775Z,100029.31
2023-04-23T20:16:54.276Z,100030.06
2023-04-23T20:19:20.824Z,100028.19
2023-04-23T20:21:47.289Z,100029.88
2023-04-23T20:24:14.227Z,100031.06
2023-04-23T20:26:41.471Z,100027.47
2023-04-23T20:29:08.370Z,100018.28
2023-04-23T20:31:35.058Z,100006.03
2023-04-23T20:34:01.469Z,100008.06
2023-04-23T20:36:34.213Z,100004.31
2023-04-23T20:39:03.282Z,100005.41
2023-04-23T20:41:32.057Z,99996.06
2023-04-23T20:43:59.090Z,100002.88
2023-04-23T20:46:26.229Z,99994.06
2023-04-23T20:48:55.380Z,99982.25
2023-04-23T20:51:23.013Z,99983.94
2023-04-23T20:53:50.752Z,99990.16
2023-04-23T20:56:18.087Z,99979.78
2023-04-23T20:58:44.522Z,99974.03
2023-04-23T21:01:13.873Z,99976.84
2023-04-23T21:03:41.066Z,99964.72
2023-04-23T21:06:09.350Z,99959.03
2023-04-23T21:08:38.758Z,99958.22
2023-04-23T21:11:05.488Z,99951.84
2023-04-23T21:13:31.901Z,99953.03
2023-04-23T21:15:58.390Z,99946.22
2023-04-23T21:18:24.796Z,99944.94
2023-04-23T21:20:51.159Z,99949.16
2023-04-23T21:23:17.571Z,99950.88
2023-04-23T21:25:44.016Z,99945.59
2023-04-23T21:28:10.407Z,99940.00
2023-04-23T21:30:49.331Z,99936.31
2023-04-23T21:33:16.358Z,99944.69
2023-04-23T21:35:43.625Z,99939.88
2023-04-23T21:38:10.394Z,99938.66
2023-04-23T21:40:37.217Z,99936.34
2023-04-23T21:43:04.587Z,99938.63
2023-04-23T21:45:31.867Z,99931.50
2023-04-23T21:47:58.528Z,99930.41
2023-04-23T21:50:27.401Z,99927.94
2023-04-23T21:52:56.064Z,99920.19
2023-04-23T21:55:22.459Z,99918.97
2023-04-23T21:57:49.202Z,99912.75
2023-04-23T22:00:16.780Z,99917.75
2023-04-23T22:02:46.862Z,99920.97
2023-04-23T22:05:20.952Z,99920.81
2023-04-23T22:07:48.328Z,99924.56
2023-04-23T22:10:15.587Z,99921.63
2023-04-23T22:12:42.980Z,99920.22
2023-04-23T22:15:11.257Z,99917.25
2023-04-23T22:17:38.799Z,99915.38
2023-04-23T22:20:07.056Z,99912.56
2023-04-23T22:22:37.075Z,99916.47
2023-04-23T22:25:07.977Z,99911.38
2023-04-23T22:27:35.754Z,99899.41
2023-04-23T22:30:04.814Z,99899.88
2023-04-23T22:32:31.697Z,99895.06
2023-04-23T22:34:58.420Z,99905.94
2023-04-23T22:37:25.013Z,99898.31
2023-04-23T22:39:51.502Z,99899.88
2023-04-23T22:42:17.975Z,99900.66
2023-04-23T22:44:44.466Z,99894.41
2023-04-23T22:47:11.830Z,99895.03
2023-04-23T22:49:38.446Z,99892.09
2023-04-23T22:52:04.998Z,99895.81
2023-04-23T22:54:31.468Z,99891.63
2023-04-23T22:56:57.863Z,99894.25
2023-04-23T22:59:25.694Z,99891.16
2023-04-23T23:01:52.140Z,99893.50
2023-04-23T23:04:18.580Z,99900.94
2023-04-23T23:06:46.205Z,99904.66
2023-04-23T23:09:12.668Z,99898.13
2023-04-23T23:11:39.154Z,99902.91
2023-04-23T23:14:06.035Z,99893.00
2023-04-23T23:16:32.446Z,99897.19
2023-04-23T23:18:58.806Z,99887.38
2023-04-23T23:21:25.628Z,99893.31
2023-04-23T23:23:52.263Z,99892.50
2023-04-23T23:26:18.643Z,99894.06
2023-04-23T23:28:45.158Z,99892.03
2023-04-23T23:31:11.562Z,99897.44
2023-04-23T23:33:39.477Z,99893.06
2023-04-23T23:36:06.996Z,99890.75
2023-04-23T23:38:33.675Z,99894.00
2023-04-23T23:41:00.052Z,99894.31
2023-04-23T23:43:26.704Z,99898.63
2023-04-23T23:45:53.075Z,99891.66
2023-04-23T23:48:19.514Z,99901.56
2023-04-23T23:50:45.996Z,99897.84
2023-04-23T23:53:12.373Z,99896.94
2023-04-23T23:55:40.559Z,99892.75
2023-04-23T23:58:06.933Z,99887.47
